createdAt,value
2023-02-11T00:00:58.766Z,66.20
2023-02-11T00:03:27.901Z,62.20
2023-02-11T00:06:00.451Z,71.07
2023-02-11T00:08:28.829Z,53.93
2023-02-11T00:10:57.545Z,49.78
2023-02-11T00:13:25.880Z,66.78
2023-02-11T00:15:54.113Z,53.42
2023-02-11T00:18:22.171Z,63.50
2023-02-11T00:20:51.373Z,65.85
2023-02-11T00:23:19.025Z,47.45
2023-02-11T00:25:47.079Z,70.40
2023-02-11T00:28:14.834Z,62.00
2023-02-11T00:30:42.570Z,59.85
2023-02-11T00:33:10.738Z,73.13
2023-02-11T00:35:38.692Z,62.93
2023-02-11T00:38:07.773Z,66.88
2023-02-11T00:40:35.453Z,64.35
2023-02-11T00:43:03.136Z,67.20
2023-02-11T00:45:30.806Z,65.90
2023-02-11T00:47:58.960Z,61.03
2023-02-11T00:50:26.742Z,62.92
2023-02-11T00:52:54.456Z,62.97
2023-02-11T00:55:23.480Z,65.32
2023-02-11T00:57:51.139Z,51.38
2023-02-11T01:00:19.170Z,63.28
2023-02-11T01:02:46.829Z,57.20
2023-02-11T01:05:14.589Z,52.08
2023-02-11T01:07:42.246Z,61.20
2023-02-11T01:10:10.438Z,59.33
2023-02-11T01:12:40.413Z,64.50
2023-02-11T01:15:09.797Z,54.85
2023-02-11T01:17:37.462Z,58.20
2023-02-11T01:20:05.695Z,57.03
2023-02-11T01:22:34.362Z,61.30
2023-02-11T01:25:02.397Z,63.78
2023-02-11T01:27:30.051Z,51.75
2023-02-11T01:29:59.325Z,54.13
2023-02-11T01:32:27.090Z,55.47
2023-02-11T01:34:54.887Z,51.90
2023-02-11T01:37:22.539Z,44.33
2023-02-11T01:39:50.189Z,54.00
2023-02-11T01:42:20.790Z,56.28
2023-02-11T01:44:51.332Z,58.60
2023-02-11T01:47:21.173Z,54.05
2023-02-11T01:49:51.490Z,59.08
2023-02-11T01:52:23.095Z,52.57
2023-02-11T01:55:10.698Z,53.03
2023-02-11T01:57:40.724Z,50.90
2023-02-11T02:00:12.004Z,59.60
2023-02-11T02:02:45.568Z,54.22
2023-02-11T02:05:20.596Z,57.93
2023-02-11T02:07:55.491Z,47.42
2023-02-11T02:10:25.839Z,52.53
2023-02-11T02:12:54.503Z,55.78
2023-02-11T02:15:28.150Z,54.90
2023-02-11T02:18:03.524Z,49.63
2023-02-11T02:20:59.916Z,57.72
2023-02-11T02:23:37.000Z,56.53
2023-02-11T02:26:36.060Z,48.10
2023-02-11T02:29:51.363Z,49.92
2023-02-11T02:32:31.918Z,48.45
2023-02-11T02:35:05.641Z,54.30
2023-02-11T02:37:37.974Z,52.83
2023-02-11T02:40:09.126Z,47.75
2023-02-11T02:42:37.073Z,49.17
2023-02-11T02:45:04.942Z,49.70
2023-02-11T02:47:34.177Z,49.53
2023-02-11T02:50:01.942Z,40.72
2023-02-11T02:52:37.156Z,40.80
2023-02-11T02:55:21.976Z,47.90
2023-02-11T02:58:01.495Z,40.55
2023-02-11T03:00:35.024Z,44.72
2023-02-11T03:03:18.519Z,41.40
2023-02-11T03:05:52.708Z,48.45
2023-02-11T03:08:26.658Z,42.75
2023-02-11T03:10:55.700Z,48.10
2023-02-11T03:13:26.486Z,48.90
2023-02-11T03:15:56.812Z,43.95
2023-02-11T03:18:27.828Z,36.35
2023-02-11T03:20:56.111Z,40.40
2023-02-11T03:23:28.856Z,39.70
2023-02-11T03:25:59.448Z,45.80
2023-02-11T03:28:31.621Z,40.47
2023-02-11T03:31:05.387Z,39.63
2023-02-11T03:33:37.202Z,39.60
2023-02-11T03:36:08.955Z,38.10
2023-02-11T03:38:39.953Z,33.95
2023-02-11T03:41:09.946Z,39.63
2023-02-11T03:43:40.014Z,37.15
2023-02-11T03:46:09.090Z,39.22
2023-02-11T03:48:40.279Z,36.92
2023-02-11T03:51:09.366Z,39.80
2023-02-11T03:53:37.804Z,39.50
2023-02-11T03:56:09.468Z,37.20
2023-02-11T03:58:37.109Z,41.80
2023-02-11T04:01:09.000Z,40.42
2023-02-11T04:03:38.194Z,38.53
2023-02-11T04:06:06.571Z,43.33
2023-02-11T04:08:34.264Z,47.38
2023-02-11T04:11:02.035Z,38.43
2023-02-11T04:13:29.845Z,45.80
2023-02-11T04:15:57.615Z,39.03
2023-02-11T04:18:25.305Z,41.80
2023-02-11T04:20:54.465Z,47.13
2023-02-11T04:23:22.216Z,47.13
2023-02-11T04:25:53.341Z,47.83
2023-02-11T04:28:21.234Z,50.08
2023-02-11T04:30:50.705Z,45.67
2023-02-11T04:33:18.460Z,43.60
2023-02-11T04:35:46.248Z,40.90
2023-02-11T04:38:16.847Z,42.13
2023-02-11T04:40:44.554Z,45.97
2023-02-11T04:43:12.252Z,38.05
2023-02-11T04:45:39.956Z,48.22
2023-02-11T04:48:07.651Z,45.60
2023-02-11T04:50:35.428Z,41.25
2023-02-11T04:53:03.045Z,42.63
2023-02-11T04:55:32.315Z,43.17
2023-02-11T04:57:59.968Z,38.72
2023-02-11T05:00:27.656Z,41.17
2023-02-11T05:02:55.337Z,42.45
2023-02-11T05:05:23.108Z,41.47
2023-02-11T05:07:50.780Z,43.42
2023-02-11T05:10:18.611Z,44.72
2023-02-11T05:12:48.986Z,39.88
2023-02-11T05:15:16.861Z,45.00
2023-02-11T05:17:44.518Z,40.50
2023-02-11T05:20:12.402Z,35.58
2023-02-11T05:22:40.043Z,44.20
2023-02-11T05:25:07.989Z,39.97
2023-02-11T05:27:35.610Z,41.83
2023-02-11T05:30:06.460Z,44.70
2023-02-11T05:32:34.129Z,40.67
2023-02-11T05:35:01.805Z,42.65
2023-02-11T05:37:29.542Z,32.17
2023-02-11T05:39:57.213Z,36.40
2023-02-11T05:42:24.970Z,39.25
2023-02-11T05:44:52.622Z,42.25
2023-02-11T05:47:21.685Z,43.15
2023-02-11T05:49:49.332Z,33.30
2023-02-11T05:52:16.995Z,46.70
2023-02-11T05:54:44.737Z,31.67
2023-02-11T05:57:12.388Z,40.03
2023-02-11T05:59:40.238Z,44.90
2023-02-11T06:02:08.586Z,46.45
2023-02-11T06:04:38.208Z,41.00
2023-02-11T06:07:06.235Z,44.42
2023-02-11T06:09:33.945Z,46.20
2023-02-11T06:12:01.683Z,42.13
2023-02-11T06:14:29.368Z,35.40
2023-02-11T06:16:57.028Z,40.40
2023-02-11T06:19:24.683Z,47.20
2023-02-11T06:21:53.727Z,52.65
2023-02-11T06:24:47.848Z,43.33
2023-02-11T06:27:08.988Z,43.80
2023-02-11T06:29:37.184Z,44.67
2023-02-11T06:32:05.192Z,47.55
2023-02-11T06:34:33.060Z,44.17
2023-02-11T06:37:02.108Z,41.40
2023-02-11T06:39:29.812Z,50.88
2023-02-11T06:41:57.535Z,50.03
2023-02-11T06:44:25.312Z,49.75
2023-02-11T06:46:53.221Z,55.20
2023-02-11T06:49:20.963Z,42.85
2023-02-11T06:51:48.755Z,55.55
2023-02-11T06:54:17.791Z,55.13
2023-02-11T06:56:45.438Z,55.25
2023-02-11T06:59:16.498Z,55.22
2023-02-11T07:01:44.284Z,54.00
2023-02-11T07:04:11.985Z,60.83
2023-02-11T07:06:39.677Z,45.42
2023-02-11T07:09:07.772Z,62.33
2023-02-11T07:11:36.853Z,51.47
2023-02-11T07:14:08.337Z,51.00
2023-02-11T07:16:36.629Z,53.92
2023-02-11T07:19:04.392Z,52.97
2023-02-11T07:21:32.054Z,52.20
2023-02-11T07:23:59.745Z,44.63
2023-02-11T07:26:27.439Z,55.83
2023-02-11T07:28:56.597Z,58.85
2023-02-11T07:31:25.723Z,58.90
2023-02-11T07:33:54.989Z,55.95
2023-02-11T07:36:23.366Z,54.42
2023-02-11T07:38:51.289Z,54.55
2023-02-11T07:41:20.517Z,60.60
2023-02-11T07:43:48.808Z,56.90
2023-02-11T07:46:19.398Z,51.65
2023-02-11T07:48:47.472Z,57.08
2023-02-11T07:51:17.638Z,61.15
2023-02-11T07:53:46.067Z,59.25
2023-02-11T07:56:15.370Z,38.65
2023-02-11T07:58:43.291Z,58.50
2023-02-11T08:01:12.705Z,60.60
2023-02-11T08:03:42.891Z,59.88
2023-02-11T08:06:12.093Z,53.33
2023-02-11T08:08:39.842Z,67.93
2023-02-11T08:11:08.899Z,59.17
2023-02-11T08:13:36.968Z,56.35
2023-02-11T08:16:05.256Z,62.20
2023-02-11T08:18:34.287Z,59.97
2023-02-11T08:21:06.957Z,61.35
2023-02-11T08:23:34.761Z,59.05
2023-02-11T08:26:03.264Z,61.80
2023-02-11T08:28:31.069Z,53.80
2023-02-11T08:30:58.932Z,61.03
2023-02-11T08:33:26.615Z,57.28
2023-02-11T08:35:54.400Z,57.42
2023-02-11T08:38:23.470Z,61.10
2023-02-11T08:40:51.391Z,51.97
2023-02-11T08:43:19.253Z,62.33
2023-02-11T08:45:46.949Z,60.08
2023-02-11T08:48:14.670Z,67.57
2023-02-11T08:50:42.710Z,62.15
2023-02-11T08:53:11.278Z,55.67
2023-02-11T08:55:40.351Z,56.83
2023-02-11T08:58:08.063Z,59.30
2023-02-11T09:00:35.830Z,59.70
2023-02-11T09:03:03.523Z,61.05
2023-02-11T09:05:31.212Z,57.83
2023-02-11T09:07:58.913Z,66.28
2023-02-11T09:10:26.576Z,47.53
2023-02-11T09:12:55.655Z,44.28
2023-02-11T09:15:23.353Z,68.70
2023-02-11T09:17:51.167Z,65.13
2023-02-11T09:20:19.168Z,56.03
2023-02-11T09:22:47.164Z,72.75
2023-02-11T09:25:14.843Z,72.90
2023-02-11T09:27:42.528Z,59.03
2023-02-11T09:30:12.841Z,61.05
2023-02-11T09:32:40.529Z,62.53
2023-02-11T09:35:08.522Z,62.13
2023-02-11T09:37:37.455Z,47.60
2023-02-11T09:40:06.299Z,67.27
2023-02-11T09:42:49.386Z,52.58
2023-02-11T09:45:21.331Z,55.92
2023-02-11T09:47:52.300Z,60.88
2023-02-11T09:50:24.506Z,60.13
2023-02-11T09:52:55.625Z,65.87
2023-02-11T09:55:24.925Z,60.60
2023-02-11T09:57:52.910Z,55.80
2023-02-11T10:00:25.366Z,53.00
2023-02-11T10:03:08.593Z,61.20
2023-02-11T10:05:45.701Z,72.95
2023-02-11T10:08:17.152Z,58.60
2023-02-11T10:10:51.699Z,62.90
2023-02-11T10:13:36.692Z,61.55
2023-02-11T10:16:14.826Z,61.33
2023-02-11T10:19:05.260Z,65.75
2023-02-11T10:21:40.578Z,62.47
2023-02-11T10:24:12.774Z,61.05
2023-02-11T10:26:40.869Z,60.35
2023-02-11T10:29:19.133Z,73.68
2023-02-11T10:31:48.726Z,74.63
2023-02-11T10:34:16.962Z,55.58
2023-02-11T10:36:46.262Z,64.40
2023-02-11T10:39:16.645Z,65.13
2023-02-11T10:41:47.635Z,62.75
2023-02-11T10:44:25.580Z,66.43
2023-02-11T10:46:55.214Z,68.55
2023-02-11T10:49:38.197Z,71.93
2023-02-11T10:52:19.765Z,68.03
2023-02-11T10:54:58.142Z,63.38
2023-02-11T10:57:27.714Z,76.95
2023-02-11T10:59:59.367Z,63.77
2023-02-11T11:02:34.414Z,61.85
2023-02-11T11:05:03.334Z,74.78
2023-02-11T11:07:32.428Z,69.97
2023-02-11T11:10:03.553Z,70.90
2023-02-11T11:12:35.039Z,70.97
2023-02-11T11:15:05.319Z,70.95
2023-02-11T11:17:34.479Z,66.43
2023-02-11T11:20:24.141Z,72.75
2023-02-11T11:22:54.033Z,69.72
2023-02-11T11:25:23.750Z,63.40
2023-02-11T11:27:52.061Z,74.90
2023-02-11T11:30:20.490Z,71.82
2023-02-11T11:32:50.134Z,71.20
2023-02-11T11:35:27.027Z,71.43
2023-02-11T11:37:58.382Z,73.53
2023-02-11T11:40:31.120Z,64.80
2023-02-11T11:43:08.019Z,69.38
2023-02-11T11:45:36.015Z,67.68
2023-02-11T11:48:08.374Z,65.72
2023-02-11T11:50:37.070Z,63.70
2023-02-11T11:53:07.009Z,69.60
2023-02-11T11:55:39.369Z,70.60
2023-02-11T11:58:12.228Z,74.20
2023-02-11T12:00:49.839Z,71.38
2023-02-11T12:03:43.794Z,68.63
2023-02-11T12:06:25.892Z,59.97
2023-02-11T12:09:01.051Z,66.10
2023-02-11T12:11:34.702Z,73.57
2023-02-11T12:14:11.299Z,58.85
2023-02-11T12:16:48.020Z,58.03
2023-02-11T12:19:32.669Z,67.53
2023-02-11T12:22:20.542Z,64.18
2023-02-11T12:25:01.371Z,66.10
2023-02-11T12:27:41.449Z,68.80
2023-02-11T12:30:20.268Z,70.38
2023-02-11T12:32:50.615Z,63.60
2023-02-11T12:35:28.648Z,64.67
2023-02-11T12:38:11.073Z,69.07
2023-02-11T12:40:42.663Z,60.10
2023-02-11T12:43:18.860Z,66.10
2023-02-11T12:46:03.581Z,61.88
2023-02-11T12:48:48.324Z,60.72
2023-02-11T12:51:25.704Z,59.70
2023-02-11T12:54:08.164Z,57.83
2023-02-11T12:56:39.892Z,66.20
2023-02-11T12:59:14.246Z,54.60
2023-02-11T13:01:43.797Z,59.28
2023-02-11T13:04:16.774Z,54.55
2023-02-11T13:06:49.720Z,61.63
2023-02-11T13:09:21.246Z,63.87
2023-02-11T13:11:52.779Z,54.92
2023-02-11T13:14:25.927Z,56.53
2023-02-11T13:16:54.635Z,59.65
2023-02-11T13:19:27.412Z,57.65
2023-02-11T13:22:04.569Z,51.80
2023-02-11T13:24:38.326Z,54.35
2023-02-11T13:27:34.382Z,53.20
2023-02-11T13:30:21.248Z,58.28
2023-02-11T13:33:07.036Z,57.40
2023-02-11T13:35:36.032Z,58.23
2023-02-11T13:38:06.002Z,47.63
2023-02-11T13:40:35.768Z,53.35
2023-02-11T13:43:04.734Z,49.35
2023-02-11T13:45:35.615Z,54.85
2023-02-11T13:48:05.981Z,53.47
2023-02-11T13:50:39.705Z,50.30
2023-02-11T13:53:09.176Z,47.60
2023-02-11T13:55:38.178Z,44.25
2023-02-11T13:58:36.442Z,48.40
2023-02-11T14:01:05.605Z,45.08
2023-02-11T14:03:53.315Z,40.70
2023-02-11T14:06:41.821Z,44.90
2023-02-11T14:09:39.592Z,42.83
2023-02-11T14:12:32.515Z,49.40
2023-02-11T14:15:21.619Z,49.90
2023-02-11T14:17:49.448Z,40.80
2023-02-11T14:20:36.527Z,42.95
2023-02-11T14:23:05.307Z,39.28
2023-02-11T14:25:34.576Z,38.40
2023-02-11T14:28:07.956Z,31.63
2023-02-11T14:30:43.667Z,32.10
2023-02-11T14:33:31.526Z,37.83
2023-02-11T14:36:06.783Z,40.35
2023-02-11T14:38:43.431Z,35.38
2023-02-11T14:41:19.566Z,29.40
2023-02-11T14:43:48.135Z,34.13
2023-02-11T14:46:17.002Z,34.30
2023-02-11T14:48:47.203Z,34.58
2023-02-11T14:51:17.526Z,37.42
2023-02-11T14:53:48.018Z,31.40
2023-02-11T14:56:24.833Z,37.95
2023-02-11T14:58:53.016Z,35.13
2023-02-11T15:01:27.802Z,38.55
2023-02-11T15:03:56.457Z,35.20
2023-02-11T15:06:26.765Z,30.33
2023-02-11T15:08:57.280Z,32.13
2023-02-11T15:11:27.142Z,31.73
2023-02-11T15:13:57.140Z,32.13
2023-02-11T15:16:26.945Z,32.08
2023-02-11T15:18:56.695Z,32.30
2023-02-11T15:21:26.132Z,36.85
2023-02-11T15:23:58.786Z,29.45
2023-02-11T15:26:28.317Z,33.33
2023-02-11T15:28:56.277Z,34.15
2023-02-11T15:31:26.005Z,30.83
2023-02-11T15:33:54.309Z,28.88
2023-02-11T15:36:28.471Z,29.63
2023-02-11T15:39:18.767Z,27.90
2023-02-11T15:41:47.868Z,35.53
2023-02-11T15:44:29.513Z,30.63
2023-02-11T15:46:57.357Z,31.50
2023-02-11T15:49:26.102Z,29.35
2023-02-11T15:51:55.606Z,29.02
2023-02-11T15:54:26.941Z,28.42
2023-02-11T15:57:00.927Z,28.92
2023-02-11T15:59:30.909Z,28.07
2023-02-11T16:01:59.682Z,32.40
2023-02-11T16:04:28.883Z,34.35
2023-02-11T16:06:57.006Z,30.50
2023-02-11T16:09:27.432Z,33.78
2023-02-11T16:11:59.406Z,33.80
2023-02-11T16:14:32.425Z,33.88
2023-02-11T16:17:04.126Z,41.13
2023-02-11T16:19:33.335Z,38.05
2023-02-11T16:22:02.426Z,35.13
2023-02-11T16:24:32.361Z,34.85
2023-02-11T16:27:03.002Z,40.60
2023-02-11T16:29:31.910Z,44.47
2023-02-11T16:32:09.116Z,44.97
2023-02-11T16:34:37.475Z,44.63
2023-02-11T16:37:06.184Z,47.50
2023-02-11T16:39:34.507Z,45.47
2023-02-11T16:42:07.101Z,47.63
2023-02-11T16:44:35.773Z,49.60
2023-02-11T16:47:05.886Z,49.97
2023-02-11T16:49:35.915Z,48.75
2023-02-11T16:52:07.401Z,49.13
2023-02-11T16:54:35.228Z,50.75
2023-02-11T16:57:09.896Z,50.45
2023-02-11T16:59:37.820Z,48.10
2023-02-11T17:02:05.484Z,49.15
2023-02-11T17:04:34.456Z,49.73
2023-02-11T17:07:02.395Z,53.97
2023-02-11T17:09:31.295Z,48.90
2023-02-11T17:11:59.240Z,49.95
2023-02-11T17:14:28.358Z,54.72
2023-02-11T17:16:56.171Z,54.70
2023-02-11T17:19:23.864Z,54.40
2023-02-11T17:21:53.591Z,59.67
2023-02-11T17:24:22.695Z,56.40
2023-02-11T17:26:51.116Z,57.38
2023-02-11T17:29:20.801Z,53.35
2023-02-11T17:31:51.501Z,53.88
2023-02-11T17:34:19.538Z,54.97
2023-02-11T17:36:47.576Z,54.92
2023-02-11T17:39:15.462Z,63.93
2023-02-11T17:41:43.372Z,58.28
2023-02-11T17:44:12.316Z,63.17
2023-02-11T17:46:40.100Z,57.25
2023-02-11T17:49:10.013Z,53.50
2023-02-11T17:51:39.256Z,57.13
2023-02-11T17:54:09.617Z,53.65
2023-02-11T17:56:38.182Z,58.35
2023-02-11T17:59:06.717Z,48.40
2023-02-11T18:01:35.295Z,60.92
2023-02-11T18:04:03.193Z,54.03
2023-02-11T18:06:34.015Z,56.80
2023-02-11T18:09:04.158Z,54.17
2023-02-11T18:11:33.361Z,57.53
2023-02-11T18:14:01.481Z,58.67
2023-02-11T18:16:30.510Z,68.65
2023-02-11T18:18:59.184Z,59.10
2023-02-11T18:21:27.269Z,50.45
2023-02-11T18:23:57.220Z,53.15
2023-02-11T18:26:28.175Z,50.90
2023-02-11T18:28:57.557Z,50.92
2023-02-11T18:31:25.374Z,46.10
2023-02-11T18:33:53.759Z,47.60
2023-02-11T18:36:22.556Z,44.23
2023-02-11T18:38:51.782Z,47.83
2023-02-11T18:41:21.538Z,43.28
2023-02-11T18:43:49.256Z,46.05
2023-02-11T18:46:17.134Z,43.30
2023-02-11T18:48:45.843Z,43.65
2023-02-11T18:51:15.171Z,43.25
2023-02-11T18:53:43.203Z,41.67
2023-02-11T18:56:12.731Z,45.03
2023-02-11T18:58:41.844Z,41.43
2023-02-11T19:01:14.303Z,41.47
2023-02-11T19:03:42.229Z,44.45
2023-02-11T19:06:15.470Z,39.05
2023-02-11T19:08:43.455Z,38.90
2023-02-11T19:11:11.175Z,41.55
2023-02-11T19:13:39.517Z,43.97
2023-02-11T19:16:11.510Z,40.10
2023-02-11T19:18:42.584Z,43.63
2023-02-11T19:21:11.383Z,39.17
2023-02-11T19:23:39.588Z,42.45
2023-02-11T19:26:07.416Z,36.25
2023-02-11T19:28:37.192Z,40.78
2023-02-11T19:31:10.546Z,39.83
2023-02-11T19:33:38.749Z,37.33
2023-02-11T19:36:11.947Z,36.35
2023-02-11T19:38:39.842Z,37.38
2023-02-11T19:41:07.663Z,39.17
2023-02-11T19:43:35.361Z,36.47
2023-02-11T19:46:03.797Z,34.75
2023-02-11T19:48:33.093Z,38.08
2023-02-11T19:51:08.379Z,40.22
2023-02-11T19:53:39.528Z,38.42
2023-02-11T19:56:07.711Z,36.65
2023-02-11T19:58:35.397Z,35.35
2023-02-11T20:01:07.812Z,35.80
2023-02-11T20:03:37.604Z,38.45
2023-02-11T20:06:06.614Z,39.08
2023-02-11T20:08:34.706Z,36.92
2023-02-11T20:11:07.439Z,36.10
2023-02-11T20:13:35.269Z,36.97
2023-02-11T20:16:07.495Z,35.92
2023-02-11T20:18:37.386Z,36.90
2023-02-11T20:21:08.722Z,35.25
2023-02-11T20:23:36.649Z,37.25
2023-02-11T20:26:08.547Z,38.15
2023-02-11T20:28:37.274Z,40.10
2023-02-11T20:31:05.530Z,36.70
2023-02-11T20:33:34.749Z,36.28
2023-02-11T20:36:05.954Z,35.22
2023-02-11T20:38:33.764Z,38.45
2023-02-11T20:41:04.445Z,39.80
2023-02-11T20:43:32.231Z,40.42
2023-02-11T20:46:04.344Z,41.38
2023-02-11T20:48:32.696Z,36.90
2023-02-11T20:51:05.611Z,41.60
2023-02-11T20:53:35.684Z,36.38
2023-02-11T20:56:04.167Z,36.22
2023-02-11T20:58:31.935Z,34.23
2023-02-11T21:01:07.876Z,39.95
2023-02-11T21:03:35.880Z,35.67
2023-02-11T21:06:05.113Z,38.37
2023-02-11T21:08:32.757Z,36.50
2023-02-11T21:11:00.418Z,43.33
2023-02-11T21:13:28.368Z,38.27
2023-02-11T21:15:56.965Z,40.28
2023-02-11T21:18:25.186Z,38.85
2023-02-11T21:20:54.932Z,45.17
2023-02-11T21:23:24.831Z,39.60
2023-02-11T21:25:54.715Z,39.92
2023-02-11T21:28:26.294Z,38.05
2023-02-11T21:30:54.489Z,43.67
2023-02-11T21:33:22.843Z,43.55
2023-02-11T21:35:50.700Z,43.70
2023-02-11T21:38:18.594Z,38.17
2023-02-11T21:40:47.676Z,40.20
2023-02-11T21:43:15.346Z,38.65
2023-02-11T21:45:44.121Z,40.10
2023-02-11T21:48:11.834Z,39.35
2023-02-11T21:50:40.267Z,38.45
2023-02-11T21:53:08.202Z,36.65
2023-02-11T21:55:36.396Z,36.40
2023-02-11T21:58:06.013Z,38.05
2023-02-11T22:00:34.398Z,36.03
2023-02-11T22:03:02.073Z,39.60
2023-02-11T22:05:29.951Z,35.38
2023-02-11T22:07:57.599Z,42.55
2023-02-11T22:10:25.314Z,37.22
2023-02-11T22:12:52.930Z,39.08
2023-02-11T22:15:21.962Z,34.83
2023-02-11T22:17:49.718Z,36.33
2023-02-11T22:20:17.549Z,40.75
2023-02-11T22:22:45.250Z,36.17
2023-02-11T22:25:13.551Z,39.05
2023-02-11T22:27:41.176Z,41.50
2023-02-11T22:30:10.169Z,35.53
2023-02-11T22:32:39.174Z,39.88
2023-02-11T22:35:07.596Z,36.55
2023-02-11T22:37:35.207Z,37.83
2023-02-11T22:40:02.867Z,37.05
2023-02-11T22:42:30.499Z,43.25
2023-02-11T22:44:58.164Z,39.67
2023-02-11T22:47:25.896Z,39.65
2023-02-11T22:49:54.920Z,41.40
2023-02-11T22:52:23.724Z,34.90
2023-02-11T22:54:51.999Z,37.22
2023-02-11T22:57:19.875Z,39.13
2023-02-11T22:59:47.526Z,38.73
2023-02-11T23:02:15.246Z,37.35
2023-02-11T23:04:42.964Z,35.92
2023-02-11T23:07:12.168Z,44.10
2023-02-11T23:09:39.809Z,38.42
2023-02-11T23:12:07.606Z,44.67
2023-02-11T23:14:35.242Z,39.47
2023-02-11T23:17:03.264Z,37.38
2023-02-11T23:19:30.891Z,39.80
2023-02-11T23:21:58.779Z,42.85
2023-02-11T23:24:27.842Z,38.42
2023-02-11T23:26:55.460Z,39.65
2023-02-11T23:29:23.123Z,38.27
2023-02-11T23:31:50.955Z,42.50
2023-02-11T23:34:23.853Z,40.38
2023-02-11T23:36:51.567Z,36.45
2023-02-11T23:39:19.613Z,44.90
2023-02-11T23:41:49.023Z,42.45
2023-02-11T23:44:16.672Z,40.83
2023-02-11T23:46:44.519Z,37.28
2023-02-11T23:49:12.221Z,40.50
2023-02-11T23:51:39.886Z,40.60
2023-02-11T23:54:07.569Z,42.03
2023-02-11T23:56:36.920Z,44.55
2023-02-11T23:59:06.867Z,37.47
